createdAt,value
2019-03-24T00:00:54.215Z,15.67
2019-03-24T00:03:45.434Z,14.80
2019-03-24T00:06:37.159Z,18.87
2019-03-24T00:09:29.955Z,20.47
2019-03-24T00:12:21.313Z,15.37
2019-03-24T00:15:12.553Z,17.83
2019-03-24T00:18:04.251Z,16.53
2019-03-24T00:20:55.130Z,21.90
2019-03-24T00:23:46.992Z,16.17
2019-03-24T00:26:38.031Z,13.47
2019-03-24T00:29:29.391Z,17.87
2019-03-24T00:32:21.209Z,18.53
2019-03-24T00:35:12.389Z,18.77
2019-03-24T00:38:03.547Z,18.43
2019-03-24T00:40:54.831Z,15.03
2019-03-24T00:43:46.641Z,14.10
2019-03-24T00:46:37.469Z,16.53
2019-03-24T00:49:29.153Z,20.47
2019-03-24T00:52:20.274Z,15.57
2019-03-24T00:55:11.525Z,14.77
2019-03-24T00:58:02.117Z,17.20
2019-03-24T01:00:54.111Z,17.50
2019-03-24T01:03:45.710Z,15.43
2019-03-24T01:06:37.331Z,18.97
2019-03-24T01:09:28.388Z,16.93
2019-03-24T01:12:21.171Z,17.70
2019-03-24T01:15:12.610Z,18.20
2019-03-24T01:18:04.250Z,20.33
2019-03-24T01:20:55.269Z,19.93
2019-03-24T01:23:46.011Z,16.20
2019-03-24T01:26:38.130Z,16.10
2019-03-24T01:29:29.050Z,22.50
2019-03-24T01:32:21.211Z,19.97
2019-03-24T01:35:12.074Z,15.50
2019-03-24T01:38:05.544Z,15.70
2019-03-24T01:40:56.730Z,16.13
2019-03-24T01:43:48.703Z,15.23
2019-03-24T01:46:41.856Z,14.30
2019-03-24T01:49:32.891Z,18.37
2019-03-24T01:52:24.250Z,13.23
2019-03-24T01:55:15.851Z,16.70
2019-03-24T01:58:06.792Z,14.27
2019-03-24T02:00:58.326Z,19.53
2019-03-24T02:03:49.271Z,16.10
2019-03-24T02:06:40.850Z,17.47
2019-03-24T02:09:32.153Z,18.30
2019-03-24T02:12:23.570Z,17.90
2019-03-24T02:15:14.847Z,19.00
2019-03-24T02:18:07.777Z,20.33
2019-03-24T02:20:59.610Z,15.40
2019-03-24T02:23:51.070Z,16.20
2019-03-24T02:26:42.530Z,16.03
2019-03-24T02:29:34.102Z,14.43
2019-03-24T02:32:25.794Z,18.23
2019-03-24T02:35:18.196Z,13.90
2019-03-24T02:38:09.938Z,18.13
2019-03-24T02:41:01.752Z,13.37
2019-03-24T02:43:52.408Z,20.23
2019-03-24T02:46:44.286Z,14.20
2019-03-24T02:49:35.790Z,16.80
2019-03-24T02:52:27.470Z,17.03
2019-03-24T02:55:18.770Z,14.87
2019-03-24T02:58:09.518Z,14.63
2019-03-24T03:01:52.870Z,13.17
2019-03-24T03:04:44.891Z,17.20
2019-03-24T03:07:37.271Z,12.70
2019-03-24T03:10:28.914Z,13.20
2019-03-24T03:13:20.419Z,14.47
2019-03-24T03:16:12.983Z,16.70
2019-03-24T03:19:04.392Z,18.63
2019-03-24T03:21:58.736Z,15.03
2019-03-24T03:24:50.583Z,19.27
2019-03-24T03:27:42.092Z,13.13
2019-03-24T03:30:33.692Z,12.97
2019-03-24T03:33:24.913Z,13.73
2019-03-24T03:36:15.772Z,14.57
2019-03-24T03:39:09.020Z,15.63
2019-03-24T03:42:00.430Z,14.57
2019-03-24T03:44:52.571Z,11.67
2019-03-24T03:47:43.990Z,13.47
2019-03-24T03:50:36.732Z,16.07
2019-03-24T03:53:28.751Z,12.37
2019-03-24T03:56:20.365Z,12.73
2019-03-24T03:59:11.791Z,14.50
2019-03-24T04:02:03.192Z,9.67
2019-03-24T04:04:54.831Z,13.57
2019-03-24T04:07:46.111Z,13.30
2019-03-24T04:10:37.869Z,14.37
2019-03-24T04:13:29.223Z,13.53
2019-03-24T04:16:21.853Z,12.80
2019-03-24T04:19:13.205Z,14.23
2019-03-24T04:22:04.471Z,16.60
2019-03-24T04:24:55.501Z,10.93
2019-03-24T04:27:47.290Z,14.10
2019-03-24T04:30:38.811Z,13.00
2019-03-24T04:33:29.691Z,14.40
2019-03-24T04:36:21.845Z,12.47
2019-03-24T04:39:13.377Z,13.93
2019-03-24T04:42:04.892Z,13.50
2019-03-24T04:44:56.751Z,16.20
2019-03-24T04:47:48.051Z,9.27
2019-03-24T04:50:39.454Z,10.50
2019-03-24T04:53:30.975Z,11.57
2019-03-24T04:56:22.431Z,9.10
2019-03-24T04:59:13.592Z,16.03
2019-03-24T05:02:05.531Z,12.17
2019-03-24T05:04:56.751Z,12.53
2019-03-24T05:07:48.730Z,12.53
2019-03-24T05:10:40.636Z,10.47
2019-03-24T05:13:31.751Z,10.63
2019-03-24T05:16:23.232Z,17.83
2019-03-24T05:19:14.323Z,11.83
2019-03-24T05:22:05.811Z,14.17
2019-03-24T05:24:58.229Z,11.40
2019-03-24T05:27:49.211Z,13.60
2019-03-24T05:30:40.751Z,12.60
2019-03-24T05:33:32.010Z,11.57
2019-03-24T05:36:24.430Z,14.30
2019-03-24T05:39:15.311Z,12.70
2019-03-24T05:42:07.151Z,8.87
2019-03-24T05:44:59.792Z,12.00
2019-03-24T05:47:50.831Z,11.13
2019-03-24T05:50:43.005Z,14.80
2019-03-24T05:53:33.851Z,11.87
2019-03-24T05:56:25.212Z,11.63
2019-03-24T05:59:16.651Z,13.03
2019-03-24T06:02:08.092Z,13.67
2019-03-24T06:04:59.611Z,10.90
2019-03-24T06:07:51.713Z,13.70
2019-03-24T06:10:43.331Z,8.57
2019-03-24T06:13:34.793Z,9.37
2019-03-24T06:16:26.412Z,14.53
2019-03-24T06:19:17.855Z,14.10
2019-03-24T06:22:09.552Z,11.30
2019-03-24T06:25:00.971Z,10.83
2019-03-24T06:27:52.971Z,11.17
2019-03-24T06:30:45.850Z,9.20
2019-03-24T06:33:38.652Z,10.20
2019-03-24T06:36:29.872Z,23.17
2019-03-24T06:39:21.471Z,11.37
2019-03-24T06:42:14.070Z,12.60
2019-03-24T06:45:05.763Z,11.87
2019-03-24T06:47:58.092Z,14.07
2019-03-24T06:50:50.020Z,14.23
2019-03-24T06:53:41.331Z,11.00
2019-03-24T06:56:32.445Z,10.47
2019-03-24T06:59:23.770Z,17.30
2019-03-24T07:02:15.772Z,16.03
2019-03-24T07:05:08.271Z,16.67
2019-03-24T07:07:59.871Z,14.47
2019-03-24T07:10:51.451Z,14.67
2019-03-24T07:13:42.534Z,13.40
2019-03-24T07:16:34.032Z,13.17
2019-03-24T07:19:26.771Z,13.50
2019-03-24T07:22:18.031Z,20.37
2019-03-24T07:25:09.851Z,16.83
2019-03-24T07:28:01.710Z,19.77
2019-03-24T07:30:53.891Z,22.77
2019-03-24T07:33:46.032Z,20.10
2019-03-24T07:36:37.590Z,19.53
2019-03-24T07:39:28.891Z,24.03
2019-03-24T07:42:20.891Z,22.90
2019-03-24T07:45:13.051Z,20.73
2019-03-24T07:48:04.972Z,20.10
2019-03-24T07:50:57.065Z,24.60
2019-03-24T07:53:48.592Z,23.07
2019-03-24T07:56:40.015Z,22.63
2019-03-24T07:59:30.991Z,22.13
2019-03-24T08:02:24.091Z,20.60
2019-03-24T08:05:15.191Z,18.43
2019-03-24T08:08:06.492Z,23.70
2019-03-24T08:10:57.451Z,21.93
2019-03-24T08:13:53.916Z,25.10
2019-03-24T08:16:42.331Z,28.23
2019-03-24T08:19:36.411Z,28.57
2019-03-24T08:22:27.856Z,29.03
2019-03-24T08:25:19.210Z,32.70
2019-03-24T08:28:11.411Z,29.87
2019-03-24T08:31:04.431Z,32.03
2019-03-24T08:33:55.751Z,31.63
2019-03-24T08:36:47.131Z,32.27
2019-03-24T08:39:38.672Z,30.77
2019-03-24T08:42:30.233Z,35.13
2019-03-24T08:45:28.774Z,29.33
2019-03-24T08:48:20.832Z,35.20
2019-03-24T08:51:12.231Z,30.90
2019-03-24T08:54:03.951Z,29.83
2019-03-24T08:56:55.891Z,28.00
2019-03-24T08:59:46.991Z,28.40
2019-03-24T09:02:38.090Z,31.42
2019-03-24T09:05:29.272Z,33.53
2019-03-24T09:08:20.351Z,31.45
2019-03-24T09:11:11.571Z,29.57
2019-03-24T09:14:02.711Z,32.37
2019-03-24T09:16:53.512Z,31.93
2019-03-24T09:19:44.531Z,35.67
2019-03-24T09:22:36.051Z,31.30
2019-03-24T09:25:27.008Z,32.13
2019-03-24T09:28:18.347Z,32.73
2019-03-24T09:31:09.112Z,32.78
2019-03-24T09:34:00.229Z,33.13
2019-03-24T09:36:51.172Z,30.12
2019-03-24T09:39:42.367Z,32.05
2019-03-24T09:42:34.432Z,34.25
2019-03-24T09:45:25.784Z,30.70
2019-03-24T09:48:17.272Z,32.05
2019-03-24T09:51:08.684Z,26.33
2019-03-24T09:54:01.690Z,28.47
2019-03-24T09:56:53.275Z,29.57
2019-03-24T09:59:44.754Z,26.05
2019-03-24T10:02:35.951Z,27.48
2019-03-24T10:05:28.021Z,28.83
2019-03-24T10:08:18.811Z,28.50
2019-03-24T10:11:09.692Z,27.55
2019-03-24T10:14:00.159Z,29.10
2019-03-24T10:16:51.313Z,30.65
2019-03-24T10:19:42.672Z,28.98
2019-03-24T10:22:33.691Z,28.73
2019-03-24T10:25:25.512Z,28.83
2019-03-24T10:28:16.857Z,29.02
2019-03-24T10:31:08.322Z,29.57
2019-03-24T10:34:01.097Z,30.92
2019-03-24T10:36:52.574Z,30.37
2019-03-24T10:39:44.251Z,30.20
2019-03-24T10:42:35.793Z,27.90
2019-03-24T10:45:27.022Z,30.20
2019-03-24T10:48:18.196Z,29.42
2019-03-24T10:51:09.851Z,31.52
2019-03-24T10:54:02.160Z,33.02
2019-03-24T10:56:53.851Z,28.10
2019-03-24T10:59:44.751Z,26.20
2019-03-24T11:02:35.510Z,27.42
2019-03-24T11:05:26.826Z,28.73
2019-03-24T11:08:19.732Z,27.05
2019-03-24T11:11:10.531Z,25.23
2019-03-24T11:14:03.292Z,23.87
2019-03-24T11:16:54.551Z,27.27
2019-03-24T11:19:46.411Z,23.55
2019-03-24T11:22:37.232Z,24.70
2019-03-24T11:25:29.172Z,24.70
2019-03-24T11:28:20.951Z,23.52
2019-03-24T11:31:12.452Z,25.70
2019-03-24T11:34:03.827Z,24.82
2019-03-24T11:36:55.472Z,22.70
2019-03-24T11:39:47.391Z,19.82
2019-03-24T11:42:38.372Z,22.25
2019-03-24T11:45:30.204Z,22.32
2019-03-24T11:48:21.793Z,22.80
2019-03-24T11:51:13.072Z,23.47
2019-03-24T11:54:04.292Z,20.00
2019-03-24T11:56:56.227Z,23.02
2019-03-24T11:59:47.351Z,22.27
2019-03-24T12:02:38.812Z,18.65
2019-03-24T12:05:30.552Z,22.48
2019-03-24T12:08:22.451Z,20.27
2019-03-24T12:11:13.671Z,24.02
2019-03-24T12:14:05.233Z,22.60
2019-03-24T12:16:58.031Z,23.90
2019-03-24T12:19:56.760Z,22.37
2019-03-24T12:22:41.890Z,22.87
2019-03-24T12:25:34.112Z,18.10
2019-03-24T12:28:25.672Z,21.00
2019-03-24T12:31:17.212Z,19.27
2019-03-24T12:34:07.736Z,20.23
2019-03-24T12:36:59.611Z,24.30
2019-03-24T12:39:50.812Z,22.15
2019-03-24T12:42:41.511Z,20.00
2019-03-24T12:45:33.771Z,23.42
2019-03-24T12:48:25.520Z,20.77
2019-03-24T12:51:18.191Z,17.82
2019-03-24T12:54:12.512Z,17.73
2019-03-24T12:57:05.774Z,21.62
2019-03-24T12:59:57.525Z,16.02
2019-03-24T13:02:48.772Z,18.92
2019-03-24T13:05:40.314Z,18.48
2019-03-24T13:08:31.831Z,17.57
2019-03-24T13:11:22.948Z,19.23
2019-03-24T13:14:14.495Z,17.82
2019-03-24T13:17:06.351Z,19.00
2019-03-24T13:19:57.386Z,19.82
2019-03-24T13:22:48.347Z,23.27
2019-03-24T13:25:39.611Z,20.35
2019-03-24T13:28:31.031Z,19.45
2019-03-24T13:31:22.112Z,23.75
2019-03-24T13:34:13.672Z,19.75
2019-03-24T13:37:05.372Z,21.42
2019-03-24T13:39:57.291Z,22.40
2019-03-24T13:42:49.391Z,18.45
2019-03-24T13:45:41.609Z,22.52
2019-03-24T13:48:33.010Z,19.07
2019-03-24T13:51:24.271Z,20.62
2019-03-24T13:54:15.472Z,19.37
2019-03-24T13:57:07.931Z,22.22
2019-03-24T13:59:59.471Z,21.10
2019-03-24T14:02:50.892Z,20.02
2019-03-24T14:05:42.513Z,21.75
2019-03-24T14:08:34.352Z,17.92
2019-03-24T14:11:26.551Z,17.42
2019-03-24T14:14:18.673Z,35.80
2019-03-24T14:17:09.931Z,21.87
2019-03-24T14:20:01.672Z,26.00
2019-03-24T14:22:55.185Z,24.98
2019-03-24T14:25:45.593Z,22.87
2019-03-24T14:28:37.672Z,20.85
2019-03-24T14:31:28.732Z,20.68
2019-03-24T14:34:20.258Z,17.82
2019-03-24T14:37:12.156Z,21.75
2019-03-24T14:40:03.512Z,17.55
2019-03-24T14:42:55.791Z,19.60
2019-03-24T14:45:46.630Z,20.27
2019-03-24T14:48:40.253Z,19.67
2019-03-24T14:51:32.892Z,23.25
2019-03-24T14:54:23.952Z,24.25
2019-03-24T14:57:14.903Z,21.57
2019-03-24T15:00:07.434Z,21.02
2019-03-24T15:02:59.631Z,20.02
2019-03-24T15:05:50.614Z,23.07
2019-03-24T15:08:44.061Z,24.60
2019-03-24T15:11:35.131Z,22.55
2019-03-24T15:14:26.411Z,21.40
2019-03-24T15:17:18.161Z,21.50
2019-03-24T15:20:09.589Z,26.30
2019-03-24T15:23:01.538Z,19.55
2019-03-24T15:25:53.093Z,25.17
2019-03-24T15:28:44.279Z,25.17
2019-03-24T15:31:34.723Z,25.35
2019-03-24T15:34:26.351Z,23.57
2019-03-24T15:37:17.232Z,25.55
2019-03-24T15:40:09.211Z,28.50
2019-03-24T15:43:00.491Z,22.32
2019-03-24T15:45:51.770Z,23.67
2019-03-24T15:48:42.771Z,26.12
2019-03-24T15:51:34.313Z,25.08
2019-03-24T15:54:25.618Z,23.25
2019-03-24T15:57:17.952Z,26.23
2019-03-24T16:00:11.512Z,28.17
2019-03-24T16:03:02.292Z,25.67
2019-03-24T16:05:56.286Z,23.32
2019-03-24T16:08:46.812Z,27.75
2019-03-24T16:11:38.354Z,27.00
2019-03-24T16:14:29.851Z,26.70
2019-03-24T16:17:21.771Z,22.00
2019-03-24T16:20:13.492Z,24.67
2019-03-24T16:23:04.691Z,23.07
2019-03-24T16:25:56.092Z,25.67
2019-03-24T16:28:47.091Z,27.47
2019-03-24T16:31:38.138Z,30.17
2019-03-24T16:34:30.492Z,29.07
2019-03-24T16:37:21.887Z,27.03
2019-03-24T16:40:12.525Z,26.57
2019-03-24T16:43:03.533Z,33.10
2019-03-24T16:45:55.196Z,31.60
2019-03-24T16:48:47.173Z,29.07
2019-03-24T16:51:38.695Z,26.43
2019-03-24T16:54:31.471Z,23.53
2019-03-24T16:57:22.873Z,34.30
2019-03-24T17:00:14.673Z,33.73
2019-03-24T17:03:06.431Z,28.40
2019-03-24T17:05:57.932Z,39.90
2019-03-24T17:08:49.400Z,46.20
2019-03-24T17:11:40.892Z,37.03
2019-03-24T17:14:32.111Z,36.60
2019-03-24T17:17:23.858Z,35.47
2019-03-24T17:20:14.831Z,62.17
2019-03-24T17:23:07.231Z,65.23
2019-03-24T17:25:58.212Z,62.23
2019-03-24T17:28:49.455Z,57.00
2019-03-24T17:31:40.931Z,55.90
2019-03-24T17:34:31.509Z,70.10
2019-03-24T17:37:23.651Z,71.20
2019-03-24T17:40:15.071Z,69.23
2019-03-24T17:43:06.591Z,65.30
2019-03-24T17:45:57.572Z,91.20
2019-03-24T17:48:48.996Z,100.30
2019-03-24T17:51:41.131Z,168.23
2019-03-24T17:54:32.198Z,141.20
2019-03-24T17:57:23.884Z,133.30
2019-03-24T18:00:17.473Z,120.20
2019-03-24T18:03:08.891Z,112.77
2019-03-24T18:06:01.272Z,105.27
2019-03-24T18:08:52.911Z,74.27
2019-03-24T18:11:44.042Z,57.60
2019-03-24T18:14:35.314Z,48.13
2019-03-24T18:17:26.814Z,45.37
2019-03-24T18:20:29.698Z,30.57
2019-03-24T18:23:20.690Z,35.43
2019-03-24T18:26:12.032Z,31.93
2019-03-24T18:29:03.451Z,32.03
2019-03-24T18:31:54.857Z,31.03
2019-03-24T18:34:45.857Z,30.77
2019-03-24T18:37:37.319Z,32.87
2019-03-24T18:40:29.526Z,29.97
2019-03-24T18:43:23.958Z,33.07
2019-03-24T18:46:15.072Z,33.00
2019-03-24T18:49:06.692Z,40.53
2019-03-24T18:51:59.373Z,32.77
2019-03-24T18:54:50.691Z,35.83
2019-03-24T18:57:43.024Z,41.43
2019-03-24T19:00:34.851Z,39.77
2019-03-24T19:03:25.915Z,40.47
2019-03-24T19:06:17.634Z,37.70
2019-03-24T19:09:10.093Z,33.87
2019-03-24T19:12:02.352Z,35.20
2019-03-24T19:14:54.171Z,33.00
2019-03-24T19:17:45.931Z,35.90
2019-03-24T19:20:38.491Z,34.73
2019-03-24T19:23:29.811Z,41.37
2019-03-24T19:26:21.113Z,37.67
2019-03-24T19:29:13.051Z,37.20
2019-03-24T19:32:04.371Z,35.87
2019-03-24T19:34:55.472Z,41.30
2019-03-24T19:37:47.931Z,43.03
2019-03-24T19:40:39.343Z,38.70
2019-03-24T19:43:31.032Z,39.40
2019-03-24T19:46:22.171Z,41.43
2019-03-24T19:49:13.491Z,40.67
2019-03-24T19:52:04.631Z,34.10
2019-03-24T19:54:55.375Z,37.23
2019-03-24T19:57:47.413Z,37.87
2019-03-24T20:00:38.813Z,38.73
2019-03-24T20:03:32.252Z,38.33
2019-03-24T20:06:25.161Z,34.60
2019-03-24T20:09:16.931Z,34.93
2019-03-24T20:12:08.792Z,42.93
2019-03-24T20:15:00.551Z,35.23
2019-03-24T20:17:52.195Z,28.87
2019-03-24T20:20:43.611Z,27.47
2019-03-24T20:23:35.070Z,27.33
2019-03-24T20:26:26.287Z,33.87
2019-03-24T20:29:17.752Z,30.53
2019-03-24T20:32:09.627Z,30.30
2019-03-24T20:35:01.238Z,27.47
2019-03-24T20:37:52.912Z,25.63
2019-03-24T20:40:44.671Z,31.83
2019-03-24T20:43:36.091Z,31.73
2019-03-24T20:46:27.431Z,31.67
2019-03-24T20:49:18.491Z,31.47
2019-03-24T20:52:09.490Z,35.23
2019-03-24T20:55:00.915Z,35.67
2019-03-24T20:57:52.992Z,28.80
2019-03-24T21:00:44.791Z,32.43
2019-03-24T21:03:36.307Z,33.27
2019-03-24T21:06:27.311Z,26.03
2019-03-24T21:09:18.832Z,34.33
2019-03-24T21:12:10.591Z,28.87
2019-03-24T21:15:01.491Z,26.43
2019-03-24T21:17:52.472Z,39.90
2019-03-24T21:20:44.316Z,31.97
2019-03-24T21:23:36.459Z,32.70
2019-03-24T21:26:27.673Z,32.47
2019-03-24T21:29:18.811Z,41.53
2019-03-24T21:32:11.315Z,36.43
2019-03-24T21:35:02.379Z,34.03
2019-03-24T21:37:54.155Z,37.67
2019-03-24T21:40:45.531Z,38.77
2019-03-24T21:43:37.391Z,32.50
2019-03-24T21:46:29.231Z,37.90
2019-03-24T21:49:21.131Z,31.27
2019-03-24T21:52:12.692Z,33.80
2019-03-24T21:55:03.488Z,35.63
2019-03-24T21:57:57.819Z,41.90
2019-03-24T22:00:48.070Z,39.00
2019-03-24T22:03:39.811Z,35.83
2019-03-24T22:06:31.470Z,38.27
2019-03-24T22:09:23.932Z,35.47
2019-03-24T22:12:15.361Z,40.33
2019-03-24T22:15:07.671Z,38.07
2019-03-24T22:17:58.878Z,37.57
2019-03-24T22:20:50.651Z,40.93
2019-03-24T22:23:51.778Z,58.43
2019-03-24T22:26:35.691Z,79.63
2019-03-24T22:29:26.923Z,75.20
2019-03-24T22:32:18.371Z,83.73
2019-03-24T22:35:11.475Z,95.43
2019-03-24T22:38:02.977Z,105.30
2019-03-24T22:40:54.831Z,73.23
2019-03-24T22:43:46.163Z,59.40
2019-03-24T22:46:37.871Z,48.07
2019-03-24T22:49:29.610Z,46.67
2019-03-24T22:52:21.531Z,41.90
2019-03-24T22:55:13.484Z,45.67
2019-03-24T22:58:04.651Z,47.30
2019-03-24T23:00:57.651Z,71.13
2019-03-24T23:03:49.150Z,74.10
2019-03-24T23:06:41.280Z,88.30
2019-03-24T23:09:32.931Z,47.90
2019-03-24T23:12:24.412Z,60.73
2019-03-24T23:15:15.100Z,66.53
2019-03-24T23:18:06.618Z,103.33
2019-03-24T23:20:57.952Z,68.10
2019-03-24T23:23:49.412Z,43.27
2019-03-24T23:26:40.974Z,37.73
2019-03-24T23:29:32.751Z,38.03
2019-03-24T23:32:23.986Z,38.93
2019-03-24T23:35:15.124Z,42.40
2019-03-24T23:38:06.971Z,35.53
2019-03-24T23:40:57.713Z,40.03
2019-03-24T23:43:49.031Z,34.10
2019-03-24T23:46:42.011Z,34.23
2019-03-24T23:49:33.851Z,47.87
2019-03-24T23:52:24.671Z,44.00
2019-03-24T23:55:16.831Z,40.57
2019-03-24T23:58:08.534Z,47.23
